»·PEaware :: UAL576 KSBP-KPSP

UAL576 :: KSBP-KPSP

FLIGHT INFORMATION

Flight Status: Arrived
Operator:
United Airlines
More flights by this operator :: More flights under this callsign
Pilot: Anonymous 8274 (8274)
Aircraft: BOEING 737-200
(B732)
More flights by this aircraft type
Origin: KSBP San Luis Co Regl
United States
Destination: KPSP Palm Springs Intl
United States
More flights between these airports :: More routes between these airports
Route: +CREPE3 MQO RZS V386 FIM PMD V386 PSP
File this flight plan on PilotEdge
Remarks:
Altitude:
(Current/Filed)
20,000ft
Speed:
(Current/Filed)
400kts
Departed: 11-Jan-18 09:38 PM
Arrived: 11-Jan-18 10:50 PM
Distance/Time
Traveled:
221nm/1:12
Distance/Time
To Go:
Arrived

Flight Plot

Page will automatically refresh every two minutes.

Flight plan parsing failed; only flown route is shown


Map Options




Map Legend


Flown Route
Filed Route
Departure Airport
Arrival Airport
Navaid (VOR, NDB)
Fix

Horizontal Profiles

Position Reports

Time Latitude Longitude Heading Altitude Ground
Speed
11-Jan-18 20:50 35.238870 -120.641187 1 189ft 0kts
11-Jan-18 20:51 35.238870 -120.641187 1 189ft 0kts
11-Jan-18 20:52 35.238870 -120.641187 1 189ft 0kts
11-Jan-18 20:53 35.238870 -120.641187 1 189ft 0kts
11-Jan-18 20:54 35.238870 -120.641187 1 189ft 0kts
11-Jan-18 20:55 35.238870 -120.641187 1 189ft 0kts
11-Jan-18 20:56 35.238870 -120.641187 1 189ft 0kts
11-Jan-18 20:57 35.238870 -120.641187 1 189ft 0kts
11-Jan-18 20:58 35.238870 -120.641187 1 189ft 0kts
11-Jan-18 20:59 35.238870 -120.641187 1 189ft 0kts
11-Jan-18 21:00 35.238870 -120.641187 1 189ft 0kts
11-Jan-18 21:01 35.238870 -120.641187 1 189ft 0kts
11-Jan-18 21:02 35.238870 -120.641187 1 189ft 0kts
11-Jan-18 21:03 35.238870 -120.641187 1 189ft 0kts
11-Jan-18 21:04 35.238870 -120.641187 1 189ft 0kts
11-Jan-18 21:05 35.238870 -120.641187 1 189ft 0kts
11-Jan-18 21:06 35.238871 -120.641187 1 189ft 0kts
11-Jan-18 21:07 35.238870 -120.641187 1 189ft 0kts
11-Jan-18 21:08 35.238870 -120.641187 1 189ft 0kts
11-Jan-18 21:09 35.238870 -120.641187 1 189ft 0kts
11-Jan-18 21:10 35.238870 -120.641187 1 189ft 0kts
11-Jan-18 21:11 35.238870 -120.641187 1 189ft 0kts
11-Jan-18 21:12 35.238870 -120.641187 1 189ft 0kts
11-Jan-18 21:13 35.238870 -120.641187 1 189ft 0kts
11-Jan-18 21:14 35.238870 -120.641187 1 189ft 0kts
11-Jan-18 21:15 35.238870 -120.641187 1 189ft 0kts
11-Jan-18 21:16 35.238870 -120.641187 1 189ft 0kts
11-Jan-18 21:17 35.238870 -120.641187 1 189ft 0kts
11-Jan-18 21:18 35.238870 -120.641187 1 189ft 0kts
11-Jan-18 21:19 35.238870 -120.641187 1 189ft 0kts
11-Jan-18 21:20 35.238870 -120.641187 1 189ft 0kts
11-Jan-18 21:21 35.238870 -120.641187 1 189ft 0kts
11-Jan-18 21:22 35.238870 -120.641187 1 189ft 0kts
11-Jan-18 21:23 35.238870 -120.641187 1 189ft 0kts
11-Jan-18 21:24 35.238870 -120.641187 1 189ft 0kts
11-Jan-18 21:25 35.238870 -120.641187 1 189ft 0kts
11-Jan-18 21:26 35.238870 -120.641187 1 189ft 0kts
11-Jan-18 21:27 35.238870 -120.641187 1 189ft 0kts
11-Jan-18 21:28 35.238870 -120.641187 1 189ft 0kts
11-Jan-18 21:29 35.238870 -120.641187 1 189ft 0kts
11-Jan-18 21:30 35.238870 -120.641187 1 189ft 0kts
11-Jan-18 21:31 35.238870 -120.641187 1 189ft 0kts
11-Jan-18 21:32 35.238797 -120.641209 28 189ft 2kts
11-Jan-18 21:33 35.238823 -120.641619 155 189ft 0kts
11-Jan-18 21:34 35.238823 -120.641618 155 189ft 0kts
11-Jan-18 21:35 35.238823 -120.641618 155 189ft 0kts
11-Jan-18 21:36 35.238823 -120.641618 155 189ft 0kts
11-Jan-18 21:37 35.238823 -120.641618 155 189ft 0kts
11-Jan-18 21:38 35.237686 -120.639508 117 189ft 12kts
11-Jan-18 21:39 35.234578 -120.634015 124 189ft 23kts
11-Jan-18 21:40 35.233323 -120.632218 207 189ft 0kts
11-Jan-18 21:41 35.233323 -120.632218 207 189ft 0kts
11-Jan-18 21:42 35.233323 -120.632218 207 189ft 0kts
11-Jan-18 21:43 35.232850 -120.632636 240 189ft 4kts
11-Jan-18 21:44 35.234825 -120.636410 304 189ft 79kts
11-Jan-18 21:45 35.256615 -120.675523 304 1815ft 152kts
11-Jan-18 21:46 35.288769 -120.733098 305 3946ft 244kts
11-Jan-18 21:47 35.330066 -120.806727 305 7035ft 267kts
11-Jan-18 21:48 35.373322 -120.883802 305 7992ft 272kts
11-Jan-18 21:49 35.415660 -120.959451 305 8853ft 275kts
11-Jan-18 21:50 35.458940 -121.036856 304 10864ft 298kts
11-Jan-18 21:51 35.480192 -121.130849 245 12954ft 313kts
11-Jan-18 21:52 35.399501 -121.171115 184 14607ft 352kts
11-Jan-18 21:53 35.305062 -121.143234 135 16188ft 382kts
11-Jan-18 21:54 35.288081 -121.017658 80 17553ft 393kts
11-Jan-18 21:55 35.294284 -120.883173 106 18802ft 408kts
11-Jan-18 21:56 35.247037 -120.759130 102 19999ft 414kts
11-Jan-18 21:57 35.225611 -120.620452 101 21054ft 423kts
11-Jan-18 21:58 35.199091 -120.477011 102 21288ft 450kts
11-Jan-18 21:59 35.170800 -120.329013 103 21280ft 475kts
11-Jan-18 22:00 35.145616 -120.200118 103 21277ft 490kts
11-Jan-18 22:01 35.117934 -120.036131 100 21391ft 501kts
11-Jan-18 22:02 35.091992 -119.872659 100 21290ft 491kts
11-Jan-18 22:03 35.030239 -119.749124 156 21288ft 447kts
11-Jan-18 22:04 34.917095 -119.752215 201 21289ft 420kts
11-Jan-18 22:05 34.814545 -119.789462 201 21275ft 427kts
11-Jan-18 22:06 34.700974 -119.830990 201 21258ft 432kts
11-Jan-18 22:07 34.586522 -119.871666 193 21250ft 441kts
11-Jan-18 22:08 34.478259 -119.811970 124 21261ft 469kts
11-Jan-18 22:09 34.467078 -119.661248 77 21251ft 464kts
11-Jan-18 22:10 34.467377 -119.506447 99 21259ft 472kts
11-Jan-18 22:11 34.441699 -119.352061 99 21251ft 472kts
11-Jan-18 22:12 34.420667 -119.225042 100 21244ft 470kts
11-Jan-18 22:13 34.394217 -119.081695 103 21245ft 466kts
11-Jan-18 22:14 34.363604 -118.934197 103 21247ft 462kts
11-Jan-18 22:15 34.369158 -118.789155 56 21265ft 440kts
11-Jan-18 22:16 34.429348 -118.663999 56 21246ft 439kts
11-Jan-18 22:17 34.470294 -118.523020 67 21258ft 444kts
11-Jan-18 22:18 34.512082 -118.387131 60 21280ft 440kts
11-Jan-18 22:19 34.558682 -118.268946 60 21290ft 439kts
11-Jan-18 22:20 34.607935 -118.144136 61 21296ft 439kts
11-Jan-18 22:21 34.631017 -118.000312 90 21287ft 450kts
11-Jan-18 22:22 34.608638 -117.850537 94 21296ft 451kts
11-Jan-18 22:23 34.599248 -117.708442 91 21304ft 451kts
11-Jan-18 22:24 34.590214 -117.558365 91 21313ft 451kts
11-Jan-18 22:25 34.581476 -117.412247 91 21316ft 452kts
11-Jan-18 22:26 34.573056 -117.270424 93 21308ft 453kts
11-Jan-18 22:27 34.556166 -117.120915 98 21308ft 454kts
11-Jan-18 22:28 34.533428 -116.971177 98 21297ft 454kts
11-Jan-18 22:29 34.513625 -116.820399 96 21294ft 455kts
11-Jan-18 22:30 34.494963 -116.669855 97 21282ft 446kts
11-Jan-18 22:31 34.420868 -116.569396 172 19475ft 408kts
11-Jan-18 22:32 34.313480 -116.564538 183 17359ft 391kts
11-Jan-18 22:33 34.207732 -116.563795 164 15217ft 386kts
11-Jan-18 22:34 34.109574 -116.519896 161 13297ft 374kts
11-Jan-18 22:35 34.013589 -116.481954 168 11412ft 360kts
11-Jan-18 22:36 33.919820 -116.452712 161 9591ft 349kts
11-Jan-18 22:37 33.858217 -116.401643 136 8614ft 307kts
11-Jan-18 22:38 33.803300 -116.338194 136 7606ft 287kts
11-Jan-18 22:39 33.747559 -116.273886 136 5706ft 276kts
11-Jan-18 22:40 33.687620 -116.220526 147 3979ft 264kts
11-Jan-18 22:41 33.637117 -116.167220 132 3965ft 238kts
11-Jan-18 22:42 33.600038 -116.102238 120 3961ft 236kts
11-Jan-18 22:43 33.574691 -116.036162 71 3988ft 197kts
11-Jan-18 22:44 33.609978 -116.039576 271 3998ft 189kts
11-Jan-18 22:45 33.597675 -116.099113 285 3962ft 183kts
11-Jan-18 22:46 33.621572 -116.146876 299 3951ft 160kts
11-Jan-18 22:47 33.644261 -116.192054 307 3274ft 161kts
11-Jan-18 22:48 33.671403 -116.233032 305 2983ft 160kts
11-Jan-18 22:49 33.696742 -116.276717 304 2976ft 162kts
11-Jan-18 22:50 33.720917 -116.321508 303 2967ft 153kts
11-Jan-18 22:51 33.744303 -116.363270 305 2987ft 149kts
11-Jan-18 22:52 33.768506 -116.401590 307 2653ft 138kts
11-Jan-18 22:53 33.789937 -116.439850 295 2138ft 139kts
11-Jan-18 22:54 33.803189 -116.482476 310 1178ft 135kts
11-Jan-18 22:55 33.830333 -116.508255 324 486ft 92kts
11-Jan-18 22:56 33.835418 -116.514855 160 486ft 15kts
11-Jan-18 22:57 33.832036 -116.511898 141 486ft 15kts
11-Jan-18 22:58 33.827104 -116.507424 142 486ft 22kts
11-Jan-18 22:59 33.824067 -116.505810 202 486ft 5kts

Navigation Log

Ident Type
Flight plan parsing failed, navigation log unavailable